Latest Weather Observations for Albion Park

IDN60801

Issued at 10:05 am EST Monday 22 September 2014 (issued every 30 minutes, with the page automatically refreshed every 10 minutes)

About weather observations | Map of weather stations | Latest weather observations for NSW | Other Formats
Station Details ID: 068241 Name: WOLLONGONG AIRPORT Lat: -34.56 Lon: 150.79 Height: 8.0 m
Data from the previous 72 hours. | See also: Recent months at Albion Park
Date/Time
EST
Temp
°C
App
Temp
°C
Dew
Point
Rel
Hum
%
Delta-T
°C
Wind Press
QNH
hPa
Press
MSL
hPa
Rain
since 9 am
mm
Dir
 
Spd
km/h
Gust
km/h
Spd
kts
Gust
kts
22/10:00am 17.6 15.4 9.5 59 4.2 ENE 11 15 6 8 1031.9 1031.9 0.0
22/09:30am 17.4 15.5 9.1 58 4.3 NE 9 15 5 8 1032.2 1032.2 0.0
22/09:00am 17.3 15.4 9.2 59 4.2 ENE 9 13 5 7 1032.2 1032.2 0.0
22/08:30am 15.7 15.5 8.9 64 3.5 CALM 0 0 0 0 1032.2 1032.2 0.0
22/08:00am 13.9 14.0 10.3 79 1.9 CALM 0 0 0 0 1032.2 1032.2 0.0
22/07:30am 11.7 11.8 10.3 91 0.7 CALM 0 0 0 0 1032.1 1032.1 0.0
22/07:00am 9.4 9.3 9.3 99 0.0 CALM 0 0 0 0 1031.8 1031.8 0.0
22/06:30am 7.8 5.9 7.7 99 0.0 W 7 9 4 5 1031.3 1031.3 0.0
22/06:00am 7.0 6.2 6.7 98 0.1 CALM 0 0 0 0 1031.0 1031.0 0.0
22/05:30am 8.0 6.3 7.7 98 0.1 W 6 7 3 4 1030.6 1030.6 0.0
22/05:00am 7.7 5.3 7.1 96 0.3 W 9 11 5 6 1030.2 1030.2 0.0
22/04:30am 9.0 8.7 8.7 98 0.1 CALM 0 0 0 0 1030.1 1030.1 0.0
22/04:00am 9.1 8.5 9.0 99 0.0 WNW 2 7 1 4 1030.1 1030.1 0.0
22/03:30am 8.2 6.6 8.1 99 0.0 W 6 7 3 4 1029.9 1029.9 0.0
22/03:00am 8.1 6.5 7.8 98 0.1 WSW 6 7 3 4 1030.1 1030.1 0.0
22/02:30am 8.3 6.7 7.9 97 0.2 WSW 6 6 3 3 1030.1 1030.1 0.0
22/02:00am 8.7 7.0 8.3 97 0.2 W 7 11 4 6 1030.2 1030.2 0.0
22/01:30am 8.7 6.6 8.1 96 0.3 W 9 9 5 5 1030.5 1030.5 0.0
22/01:00am 9.4 7.9 8.6 95 0.4 W 6 9 3 5 1030.7 1030.7 0.0
22/12:30am 9.4 7.9 8.6 95 0.4 WSW 6 7 3 4 1031.0 1031.0 0.0
22/12:00am 10.1 8.2 9.2 94 0.4 W 9 11 5 6 1031.1 1031.1 0.0
 
Date/Time
EST
Temp
°C
App
Temp
°C
Dew
Point
Rel
Hum
%
Delta-T
°C
Wind Press
QNH
hPa
Press
MSL
hPa
Rain
since 9 am
mm
Dir
 
Spd
km/h
Gust
km/h
Spd
kts
Gust
kts
21/11:30pm 9.9 8.4 9.1 95 0.4 SW 7 9 4 5 1031.3 1031.3 0.0
21/11:00pm 9.6 8.9 8.5 93 0.5 WSW 2 7 1 4 1031.3 1031.3 0.0
21/10:30pm 10.4 10.2 9.2 92 0.6 CALM 0 0 0 0 1031.5 1031.5 0.0
21/10:00pm 11.0 10.8 9.1 88 0.9 CALM 0 6 0 3 1031.4 1031.4 0.0
21/09:30pm 11.9 10.6 10.0 88 1.0 WSW 7 11 4 6 1031.3 1031.3 0.0
21/09:00pm 12.5 11.0 10.4 87 1.1 SSW 9 11 5 6 1031.3 1031.3 0.0
21/08:30pm 13.0 12.1 10.5 85 1.3 SSE 6 7 3 4 1031.1 1031.1 0.0
21/08:00pm 12.8 12.9 10.2 84 1.3 CALM 0 0 0 0 1030.8 1030.8 0.0
21/07:30pm 13.1 11.8 9.9 81 1.6 SSE 7 9 4 5 1030.3 1030.3 0.0
21/07:00pm 13.2 11.2 10.0 81 1.6 SSE 11 13 6 7 1029.9 1029.9 0.0
21/06:30pm 13.2 11.5 9.8 80 1.7 S 9 11 5 6 1029.4 1029.4 0.0
21/06:00pm 14.4 13.1 9.8 74 2.4 SSE 7 11 4 6 1028.9 1028.9 0.0
21/05:30pm 15.2 13.2 10.0 71 2.7 SE 11 15 6 8 1028.6 1028.6 0.0
21/05:00pm 16.1 14.4 10.0 67 3.2 SE 9 15 5 8 1028.3 1028.3 0.0
21/04:30pm 16.5 13.9 9.4 63 3.7 ESE 13 19 7 10 1028.1 1028.1 0.0
21/04:00pm 16.9 14.4 9.6 62 3.8 SE 13 20 7 11 1028.0 1028.0 0.0
21/03:30pm 16.5 13.8 9.0 61 3.9 ESE 13 22 7 12 1027.9 1027.9 0.0
21/03:00pm 16.6 13.6 9.1 61 3.8 E 15 19 8 10 1027.7 1027.7 0.0
21/02:30pm 17.6 14.8 10.0 61 4.0 ESE 15 20 8 11 1027.9 1027.9 0.0
21/02:00pm 17.1 13.7 9.0 59 4.2 SE 17 22 9 12 1028.1 1028.1 0.0
21/01:30pm 17.4 14.8 9.3 59 4.2 ESE 13 20 7 11 1028.2 1028.2 0.0
21/01:00pm 18.0 15.2 9.9 59 4.3 ESE 15 24 8 13 1028.5 1028.5 0.0
21/12:30pm 18.1 14.6 10.2 60 4.2 E 19 30 10 16 1028.8 1028.8 0.0
21/12:00pm 17.2 13.5 9.6 61 4.0 E 19 26 10 14 1029.3 1029.3 0.0
21/11:30am 17.9 14.8 10.3 61 4.1 E 17 28 9 15 1029.9 1029.9 0.0
21/11:00am 18.6 17.1 10.7 60 4.2 SE 9 13 5 7 1030.1 1030.1 0.0
21/10:30am 17.3 15.1 9.5 60 4.1 SE 11 17 6 9 1030.4 1030.4 0.0
21/10:00am 17.2 14.5 9.1 59 4.2 S 13 20 7 11 1030.6 1030.6 0.0
21/09:30am 17.0 14.3 8.9 59 4.2 SE 13 19 7 10 1030.6 1030.6 0.0
21/09:00am 17.0 14.0 9.4 61 3.9 SSE 15 20 8 11 1030.7 1030.7 0.0
21/08:30am 16.1 13.0 8.8 62 3.7 S 15 20 8 11 1030.6 1030.6 0.0
21/08:00am 14.5 13.3 9.7 73 2.5 WNW 6 7 3 4 1030.3 1030.3 0.0
21/07:30am 12.0 11.3 9.9 87 1.1 WSW 4 7 2 4 1029.8 1029.8 0.0
21/07:00am 9.5 8.1 9.0 97 0.2 WNW 6 9 3 5 1029.4 1029.4 0.0
21/06:30am 7.5 6.9 7.2 98 0.1 CALM 0 4 0 2 1029.0 1029.0 0.0
21/06:00am 6.5 4.5 6.2 98 0.1 SW 6 9 3 5 1028.5 1028.5 0.0
21/05:30am 6.7 4.7 6.4 98 0.1 WSW 6 11 3 6 1028.3 1028.3 0.0
21/05:00am 6.9 4.4 6.5 97 0.2 WSW 9 11 5 6 1027.9 1027.9 0.0
21/04:30am 7.5 5.4 6.8 95 0.3 W 7 11 4 6 1027.7 1027.7 0.0
21/04:00am 7.9 5.5 6.8 93 0.5 WSW 9 11 5 6 1027.5 1027.5 0.0
21/03:30am 8.6 6.7 7.5 93 0.5 W 7 11 4 6 1027.5 1027.5 0.0
21/03:00am 8.3 5.9 7.1 92 0.6 W 9 11 5 6 1027.3 1027.3 0.0
21/02:30am 8.9 6.3 7.8 93 0.5 W 11 15 6 8 1027.6 1027.6 0.0
21/02:00am 8.4 6.6 7.2 92 0.6 SW 6 7 3 4 1027.8 1027.8 0.0
21/01:30am 8.9 6.3 7.7 92 0.6 WSW 11 15 6 8 1028.0 1028.0 0.0
21/01:00am 8.7 6.4 7.5 92 0.6 WSW 9 11 5 6 1028.3 1028.3 0.0
21/12:30am 9.2 6.2 7.8 91 0.7 WSW 13 17 7 9 1028.5 1028.5 0.0
21/12:00am 9.4 6.1 8.2 92 0.6 WSW 15 17 8 9 1028.5 1028.5 0.0
 
Date/Time
EST
Temp
°C
App
Temp
°C
Dew
Point
Rel
Hum
%
Delta-T
°C
Wind Press
QNH
hPa
Press
MSL
hPa
Rain
since 9 am
mm
Dir
 
Spd
km/h
Gust
km/h
Spd
kts
Gust
kts
20/11:30pm 9.5 7.4 8.1 91 0.7 WSW 9 13 5 7 1028.4 1028.4 0.0
20/11:00pm 9.1 6.8 7.4 89 0.8 SSW 9 11 5 6 1028.6 1028.6 0.0
20/10:30pm 10.3 7.8 8.2 87 1.0 WSW 11 19 6 10 1028.5 1028.5 0.0
20/10:00pm 10.1 6.8 8.0 87 1.0 W 15 17 8 9 1028.6 1028.6 0.0
20/09:30pm 9.9 7.2 7.3 84 1.2 W 11 17 6 9 1028.4 1028.4 0.0
20/09:00pm 9.5 7.1 6.9 84 1.2 W 9 13 5 7 1028.2 1028.2 0.0
20/08:30pm 10.4 6.5 7.3 81 1.5 W 17 19 9 10 1027.9 1027.9 0.0
20/08:00pm 9.6 7.1 6.5 81 1.4 WSW 9 15 5 8 1027.6 1027.6 0.0
20/07:30pm 10.4 7.3 7.3 81 1.5 W 13 15 7 8 1027.2 1027.2 0.0
20/07:00pm 10.6 7.8 7.1 79 1.7 W 11 13 6 7 1026.7 1026.7 0.0
20/06:30pm 12.3 10.5 7.0 70 2.5 S 6 7 3 4 1026.3 1026.3 0.0
20/06:00pm 13.5 11.2 7.5 67 2.9 S 9 13 5 7 1025.8 1025.8 0.0
20/05:30pm 15.3 12.9 7.1 58 4.0 S 9 13 5 7 1025.4 1025.4 0.0
20/05:00pm 15.9 12.6 6.6 54 4.5 SSE 13 19 7 10 1024.8 1024.8 0.0
20/04:30pm 16.2 11.6 6.6 53 4.7 SSE 20 32 11 17 1024.4 1024.4 0.0
20/04:00pm 16.9 12.0 7.0 52 4.9 SSE 22 32 12 17 1024.1 1024.1 0.0
20/03:30pm 16.9 11.8 6.1 49 5.3 SE 22 37 12 20 1023.8 1023.8 0.0
20/03:00pm 17.3 11.7 5.3 45 5.7 SE 24 39 13 21 1023.5 1023.5 0.0
20/02:30pm 17.8 12.5 7.0 49 5.4 SSE 24 41 13 22 1023.4 1023.4 0.0
20/02:00pm 17.7 11.9 6.3 47 5.6 SSE 26 39 14 21 1023.5 1023.5 0.0
20/01:30pm 18.1 12.8 6.6 47 5.7 S 24 35 13 19 1023.5 1023.5 0.0
20/01:00pm 17.6 12.3 5.2 44 5.9 SSE 22 33 12 18 1023.7 1023.7 0.0
20/12:30pm 18.1 13.5 6.3 46 5.8 SSE 20 30 11 16 1024.0 1024.0 0.0
20/12:00pm 17.5 13.0 7.0 50 5.2 SSE 20 32 11 17 1024.2 1024.2 0.0
20/11:30am 17.6 13.9 6.5 48 5.5 SE 15 20 8 11 1024.4 1024.4 0.0
20/11:00am 17.2 13.9 6.4 49 5.3 SE 13 22 7 12 1024.5 1024.5 0.0
20/10:30am 16.8 13.2 6.6 51 5.0 S 15 26 8 14 1024.8 1024.8 0.0
20/10:00am 16.9 12.0 7.0 52 4.9 S 22 30 12 16 1025.0 1025.0 0.0
20/09:30am 16.7 11.8 7.1 53 4.8 S 22 32 12 17 1025.1 1025.1 0.0
20/09:00am 15.5 10.1 6.2 54 4.5 S 24 35 13 19 1025.0 1025.0 0.0
20/08:30am 15.6 11.3 7.9 60 3.9 S 20 30 11 16 1024.8 1024.8 0.0
20/08:00am 15.1 11.4 7.9 62 3.6 S 17 20 9 11 1024.4 1024.4 0.0
20/07:30am 13.4 11.5 7.6 68 2.8 SW 7 17 4 9 1024.1 1024.1 0.0
20/07:00am 11.2 7.7 5.5 68 2.6 W 13 17 7 9 1023.7 1023.7 0.0
20/06:30am 7.0 5.9 5.3 89 0.8 CALM 0 0 0 0 1023.1 1023.1 0.0
20/06:00am 4.9 2.3 4.2 95 0.3 WSW 7 9 4 5 1022.6 1022.6 0.0
20/05:30am 4.2 1.7 3.8 97 0.2 SW 6 7 3 4 1022.1 1022.1 0.0
20/05:00am 3.9 2.1 3.5 97 0.2 SW 2 9 1 5 1021.6 1021.6 0.0
20/04:30am 3.7 1.1 3.1 96 0.2 SW 6 7 3 4 1021.1 1021.1 0.0
20/04:00am 4.3 1.8 3.9 97 0.2 W 6 7 3 4 1021.0 1021.0 0.0
20/03:30am 4.1 1.4 3.5 96 0.2 WSW 7 9 4 5 1020.8 1020.8 0.0
20/03:00am 4.2 2.0 3.6 96 0.2 WSW 4 7 2 4 1020.9 1020.9 0.0
20/02:30am 4.4 3.0 3.7 95 0.3 CALM 0 0 0 0 1020.9 1020.9 0.0
20/02:00am 4.6 3.2 3.7 94 0.4 CALM 0 6 0 3 1021.0 1021.0 0.0
20/01:30am 5.2 2.7 4.5 95 0.3 WNW 7 7 4 4 1021.3 1021.3 0.0
20/01:00am 5.0 3.7 4.0 93 0.4 CALM 0 6 0 3 1021.6 1021.6 0.0
20/12:30am 5.4 3.0 4.1 91 0.6 WSW 6 9 3 5 1021.6 1021.6 0.0
20/12:00am 5.4 4.1 4.1 91 0.5 CALM 0 0 0 0 1021.7 1021.7 0.0
 
Date/Time
EST
Temp
°C
App
Temp
°C
Dew
Point
Rel
Hum
%
Delta-T
°C
Wind Press
QNH
hPa
Press
MSL
hPa
Rain
since 9 am
mm
Dir
 
Spd
km/h
Gust
km/h
Spd
kts
Gust
kts
19/11:30pm 5.8 3.8 4.3 90 0.6 SW 4 7 2 4 1021.8 1021.8 0.0
19/11:00pm 6.1 3.7 4.3 88 0.8 W 6 9 3 5 1022.0 1022.0 0.0
19/10:30pm 6.6 4.0 4.4 86 0.9 W 7 9 4 5 1022.2 1022.2 0.0
19/10:00pm 6.5 3.9 4.2 85 1.0 W 7 9 4 5 1022.2 1022.2 0.0
19/09:30pm 7.2 4.7 4.5 83 1.2 W 7 11 4 6 1022.1 1022.1 0.0
19/09:00pm 7.6 4.7 4.6 81 1.3 W 9 9 5 5 1022.1 1022.1 0.0
19/08:30pm 8.1 5.2 4.9 80 1.4 W 9 11 5 6 1022.1 1022.1 0.0
19/08:00pm 8.2 4.6 4.8 79 1.5 W 13 15 7 8 1022.0 1022.0 0.0
19/07:30pm 9.3 5.4 5.5 77 1.7 W 15 17 8 9 1021.6 1021.6 0.0
19/07:00pm 9.9 6.8 5.7 75 1.9 W 11 13 6 7 1021.3 1021.3 0.0
19/06:30pm 11.3 8.8 4.5 63 3.1 WSW 7 11 4 6 1020.9 1020.9 0.0
19/06:00pm 12.7 10.9 3.4 53 4.1 ESE 2 6 1 3 1020.5 1020.5 0.0
19/05:30pm 14.7 11.4 2.6 44 5.4 SE 9 13 5 7 1020.2 1020.2 0.0
19/05:00pm 15.3 11.7 2.8 43 5.6 SE 11 13 6 7 1019.9 1019.9 0.0
19/04:30pm 15.8 12.1 4.5 47 5.3 SE 13 19 7 10 1019.6 1019.6 0.0
19/04:00pm 16.0 12.7 6.2 52 4.7 ESE 13 19 7 10 1019.3 1019.3 0.0
19/03:30pm 16.0 12.3 6.4 53 4.7 ESE 15 19 8 10 1019.2 1019.2 0.0
19/03:00pm 16.5 13.2 6.6 52 4.8 ESE 13 20 7 11 1019.2 1019.2 0.0
19/02:30pm 16.6 12.9 6.4 51 5.0 ESE 15 20 8 11 1019.2 1019.2 0.0
19/02:00pm 16.9 13.0 5.5 47 5.5 ESE 15 20 8 11 1019.2 1019.2 0.0
19/01:30pm 16.8 12.6 5.7 48 5.4 ESE 17 24 9 13 1019.5 1019.5 0.0
19/01:00pm 17.0 13.1 5.3 46 5.6 ESE 15 20 8 11 1019.6 1019.6 0.0
19/12:30pm 16.8 12.6 5.7 48 5.4 ESE 17 22 9 12 1019.9 1019.9 0.0
19/12:00pm 17.0 12.7 5.3 46 5.6 E 17 22 9 12 1020.3 1020.3 0.0
19/11:30am 17.2 12.6 3.8 41 6.2 E 17 22 9 12 1020.7 1020.7 0.0
19/11:00am 17.2 12.6 3.5 40 6.3 ENE 17 24 9 13 1021.0 1021.0 0.0
19/10:30am 17.9 15.1 3.0 37 6.9 NNE 7 13 4 7 1021.3 1021.3 0.0

Other Formats:

Comma delimited format used in spreadsheet applications
http://www.bom.gov.au/fwo/IDN60801/IDN60801.95748.axf

JavaScript Object Notation format (JSON) in row-major order
http://www.bom.gov.au/fwo/IDN60801/IDN60801.95748.json